sensor_id;sensor_type;location;lat;lon;timestamp;P1;durP1;ratioP1;P2;durP2;ratioP2
52554;SDS011;38455;52.710;6.502;2023-11-22T00:00:14;25.50;;;11.48;;
52554;SDS011;38455;52.710;6.502;2023-11-22T00:02:39;32.28;;;12.57;;
52554;SDS011;38455;52.710;6.502;2023-11-22T00:05:05;24.73;;;11.38;;
52554;SDS011;38455;52.710;6.502;2023-11-22T00:07:34;23.83;;;11.98;;
52554;SDS011;38455;52.710;6.502;2023-11-22T00:10:00;25.75;;;10.45;;
52554;SDS011;38455;52.710;6.502;2023-11-22T00:12:29;19.25;;;10.60;;
52554;SDS011;38455;52.710;6.502;2023-11-22T00:15:01;18.58;;;10.23;;
52554;SDS011;38455;52.710;6.502;2023-11-22T00:17:29;37.35;;;13.70;;
52554;SDS011;38455;52.710;6.502;2023-11-22T00:19:54;20.05;;;10.95;;
52554;SDS011;38455;52.710;6.502;2023-11-22T00:22:20;23.10;;;11.77;;
52554;SDS011;38455;52.710;6.502;2023-11-22T00:24:46;22.85;;;12.65;;
52554;SDS011;38455;52.710;6.502;2023-11-22T00:27:15;29.52;;;13.00;;
52554;SDS011;38455;52.710;6.502;2023-11-22T00:29:41;35.72;;;13.50;;
52554;SDS011;38455;52.710;6.502;2023-11-22T00:32:06;19.88;;;11.45;;
52554;SDS011;38455;52.710;6.502;2023-11-22T00:34:35;24.30;;;12.60;;
52554;SDS011;38455;52.710;6.502;2023-11-22T00:37:01;17.63;;;10.90;;
52554;SDS011;38455;52.710;6.502;2023-11-22T00:39:27;27.30;;;12.38;;
52554;SDS011;38455;52.710;6.502;2023-11-22T00:41:52;22.88;;;11.73;;
52554;SDS011;38455;52.710;6.502;2023-11-22T00:44:18;33.05;;;13.20;;
52554;SDS011;38455;52.710;6.502;2023-11-22T00:46:44;22.98;;;12.07;;
52554;SDS011;38455;52.710;6.502;2023-11-22T00:49:10;20.40;;;11.48;;
52554;SDS011;38455;52.710;6.502;2023-11-22T00:51:36;35.88;;;15.25;;
52554;SDS011;38455;52.710;6.502;2023-11-22T00:54:02;21.83;;;11.20;;
52554;SDS011;38455;52.710;6.502;2023-11-22T00:56:27;27.30;;;12.45;;
52554;SDS011;38455;52.710;6.502;2023-11-22T00:58:54;21.23;;;11.98;;
52554;SDS011;38455;52.710;6.502;2023-11-22T01:01:20;27.30;;;12.43;;
52554;SDS011;38455;52.710;6.502;2023-11-22T01:03:46;25.02;;;12.23;;
52554;SDS011;38455;52.710;6.502;2023-11-22T01:06:12;22.77;;;11.82;;
52554;SDS011;38455;52.710;6.502;2023-11-22T01:08:38;34.20;;;13.30;;
52554;SDS011;38455;52.710;6.502;2023-11-22T01:11:04;24.92;;;11.35;;
52554;SDS011;38455;52.710;6.502;2023-11-22T01:13:30;22.70;;;11.05;;
52554;SDS011;38455;52.710;6.502;2023-11-22T01:15:57;24.60;;;12.88;;
52554;SDS011;38455;52.710;6.502;2023-11-22T01:18:23;29.10;;;12.20;;
52554;SDS011;38455;52.710;6.502;2023-11-22T01:20:49;25.95;;;12.88;;
52554;SDS011;38455;52.710;6.502;2023-11-22T01:23:14;44.75;;;15.15;;
52554;SDS011;38455;52.710;6.502;2023-11-22T01:25:40;23.92;;;11.95;;
52554;SDS011;38455;52.710;6.502;2023-11-22T01:28:05;24.40;;;11.27;;
52554;SDS011;38455;52.710;6.502;2023-11-22T01:30:36;28.17;;;11.60;;
52554;SDS011;38455;52.710;6.502;2023-11-22T01:33:03;22.02;;;11.10;;
52554;SDS011;38455;52.710;6.502;2023-11-22T01:35:29;24.30;;;12.32;;
52554;SDS011;38455;52.710;6.502;2023-11-22T01:37:55;31.65;;;14.65;;
52554;SDS011;38455;52.710;6.502;2023-11-22T01:40:21;27.83;;;13.70;;
52554;SDS011;38455;52.710;6.502;2023-11-22T01:42:47;32.17;;;13.63;;
52554;SDS011;38455;52.710;6.502;2023-11-22T01:45:13;32.83;;;14.43;;
52554;SDS011;38455;52.710;6.502;2023-11-22T01:47:39;29.13;;;12.00;;
52554;SDS011;38455;52.710;6.502;2023-11-22T01:50:06;21.15;;;10.23;;
52554;SDS011;38455;52.710;6.502;2023-11-22T01:52:33;38.17;;;13.65;;
52554;SDS011;38455;52.710;6.502;2023-11-22T01:55:00;38.83;;;13.48;;
52554;SDS011;38455;52.710;6.502;2023-11-22T01:57:30;33.88;;;13.35;;
52554;SDS011;38455;52.710;6.502;2023-11-22T01:59:59;24.60;;;10.85;;
52554;SDS011;38455;52.710;6.502;2023-11-22T02:02:27;25.50;;;11.32;;
52554;SDS011;38455;52.710;6.502;2023-11-22T02:04:52;26.20;;;11.75;;
52554;SDS011;38455;52.710;6.502;2023-11-22T02:07:18;37.03;;;13.30;;
52554;SDS011;38455;52.710;6.502;2023-11-22T02:09:44;30.67;;;13.75;;
52554;SDS011;38455;52.710;6.502;2023-11-22T02:12:11;78.75;;;17.40;;
52554;SDS011;38455;52.710;6.502;2023-11-22T02:14:37;62.25;;;14.98;;
52554;SDS011;38455;52.710;6.502;2023-11-22T02:17:03;27.02;;;11.88;;
52554;SDS011;38455;52.710;6.502;2023-11-22T02:19:29;38.95;;;13.00;;
52554;SDS011;38455;52.710;6.502;2023-11-22T02:21:55;37.97;;;13.07;;
52554;SDS011;38455;52.710;6.502;2023-11-22T02:24:21;35.88;;;13.48;;
52554;SDS011;38455;52.710;6.502;2023-11-22T02:26:47;50.88;;;15.77;;
52554;SDS011;38455;52.710;6.502;2023-11-22T02:29:12;33.05;;;13.07;;
52554;SDS011;38455;52.710;6.502;2023-11-22T02:31:39;49.08;;;15.13;;
52554;SDS011;38455;52.710;6.502;2023-11-22T02:34:11;36.72;;;13.68;;
52554;SDS011;38455;52.710;6.502;2023-11-22T02:36:36;82.80;;;15.80;;
52554;SDS011;38455;52.710;6.502;2023-11-22T02:39:02;42.08;;;14.35;;
52554;SDS011;38455;52.710;6.502;2023-11-22T02:41:28;75.75;;;15.88;;
52554;SDS011;38455;52.710;6.502;2023-11-22T02:43:57;64.70;;;15.82;;
52554;SDS011;38455;52.710;6.502;2023-11-22T02:46:22;45.45;;;15.07;;
52554;SDS011;38455;52.710;6.502;2023-11-22T02:48:49;35.45;;;14.68;;
52554;SDS011;38455;52.710;6.502;2023-11-22T02:51:14;47.30;;;14.32;;
52554;SDS011;38455;52.710;6.502;2023-11-22T02:53:42;34.08;;;13.25;;
52554;SDS011;38455;52.710;6.502;2023-11-22T02:56:09;29.52;;;13.60;;
52554;SDS011;38455;52.710;6.502;2023-11-22T02:58:35;31.67;;;13.60;;
52554;SDS011;38455;52.710;6.502;2023-11-22T03:01:01;42.03;;;15.73;;
52554;SDS011;38455;52.710;6.502;2023-11-22T03:03:27;65.20;;;18.27;;
52554;SDS011;38455;52.710;6.502;2023-11-22T03:05:53;62.97;;;18.48;;
52554;SDS011;38455;52.710;6.502;2023-11-22T03:08:19;47.20;;;15.57;;
52554;SDS011;38455;52.710;6.502;2023-11-22T03:10:45;26.95;;;12.93;;
52554;SDS011;38455;52.710;6.502;2023-11-22T03:13:11;45.33;;;14.70;;
52554;SDS011;38455;52.710;6.502;2023-11-22T03:15:37;54.70;;;16.55;;
52554;SDS011;38455;52.710;6.502;2023-11-22T03:18:03;41.25;;;14.70;;
52554;SDS011;38455;52.710;6.502;2023-11-22T03:20:31;32.80;;;13.43;;
52554;SDS011;38455;52.710;6.502;2023-11-22T03:22:57;43.20;;;15.10;;
52554;SDS011;38455;52.710;6.502;2023-11-22T03:25:23;190.45;;;29.20;;
52554;SDS011;38455;52.710;6.502;2023-11-22T03:27:49;31.25;;;14.30;;
52554;SDS011;38455;52.710;6.502;2023-11-22T03:30:15;43.60;;;14.63;;
52554;SDS011;38455;52.710;6.502;2023-11-22T03:32:41;56.00;;;17.27;;
52554;SDS011;38455;52.710;6.502;2023-11-22T03:35:07;28.83;;;13.00;;
52554;SDS011;38455;52.710;6.502;2023-11-22T03:37:33;46.65;;;16.35;;
52554;SDS011;38455;52.710;6.502;2023-11-22T03:39:59;31.23;;;14.43;;
52554;SDS011;38455;52.710;6.502;2023-11-22T03:42:25;71.18;;;19.95;;
52554;SDS011;38455;52.710;6.502;2023-11-22T03:44:54;42.53;;;16.60;;
52554;SDS011;38455;52.710;6.502;2023-11-22T03:47:20;40.03;;;15.43;;
52554;SDS011;38455;52.710;6.502;2023-11-22T03:49:46;56.30;;;18.75;;
52554;SDS011;38455;52.710;6.502;2023-11-22T03:52:11;55.30;;;16.90;;
52554;SDS011;38455;52.710;6.502;2023-11-22T03:54:37;35.65;;;13.70;;
52554;SDS011;38455;52.710;6.502;2023-11-22T03:57:04;36.58;;;15.70;;
52554;SDS011;38455;52.710;6.502;2023-11-22T03:59:30;45.35;;;16.52;;
52554;SDS011;38455;52.710;6.502;2023-11-22T04:01:55;43.22;;;16.50;;
52554;SDS011;38455;52.710;6.502;2023-11-22T04:04:22;39.50;;;14.68;;
52554;SDS011;38455;52.710;6.502;2023-11-22T04:06:48;67.55;;;17.60;;
52554;SDS011;38455;52.710;6.502;2023-11-22T04:09:14;166.18;;;25.02;;
52554;SDS011;38455;52.710;6.502;2023-11-22T04:11:42;115.07;;;23.17;;
52554;SDS011;38455;52.710;6.502;2023-11-22T04:14:07;30.60;;;13.75;;
52554;SDS011;38455;52.710;6.502;2023-11-22T04:16:33;34.65;;;14.45;;
52554;SDS011;38455;52.710;6.502;2023-11-22T04:18:59;45.20;;;16.67;;
52554;SDS011;38455;52.710;6.502;2023-11-22T04:21:25;35.05;;;13.65;;
52554;SDS011;38455;52.710;6.502;2023-11-22T04:23:50;51.17;;;16.80;;
52554;SDS011;38455;52.710;6.502;2023-11-22T04:26:16;45.97;;;16.20;;
52554;SDS011;38455;52.710;6.502;2023-11-22T04:28:42;50.08;;;17.65;;
52554;SDS011;38455;52.710;6.502;2023-11-22T04:31:08;30.05;;;13.55;;
52554;SDS011;38455;52.710;6.502;2023-11-22T04:33:34;33.95;;;14.20;;
52554;SDS011;38455;52.710;6.502;2023-11-22T04:36:00;92.47;;;21.45;;
52554;SDS011;38455;52.710;6.502;2023-11-22T04:38:25;67.25;;;17.80;;
52554;SDS011;38455;52.710;6.502;2023-11-22T04:40:51;67.28;;;19.65;;
52554;SDS011;38455;52.710;6.502;2023-11-22T04:43:17;50.83;;;13.82;;
52554;SDS011;38455;52.710;6.502;2023-11-22T04:45:43;46.95;;;17.55;;
52554;SDS011;38455;52.710;6.502;2023-11-22T04:48:08;180.10;;;24.23;;
52554;SDS011;38455;52.710;6.502;2023-11-22T04:50:34;114.97;;;23.55;;
52554;SDS011;38455;52.710;6.502;2023-11-22T04:53:00;53.00;;;17.30;;
52554;SDS011;38455;52.710;6.502;2023-11-22T04:55:26;48.00;;;16.20;;
52554;SDS011;38455;52.710;6.502;2023-11-22T04:57:53;255.57;;;31.02;;
52554;SDS011;38455;52.710;6.502;2023-11-22T05:00:19;39.00;;;16.17;;
52554;SDS011;38455;52.710;6.502;2023-11-22T05:02:48;38.08;;;15.07;;
52554;SDS011;38455;52.710;6.502;2023-11-22T05:05:13;60.25;;;13.65;;
52554;SDS011;38455;52.710;6.502;2023-11-22T05:07:39;176.60;;;20.88;;
52554;SDS011;38455;52.710;6.502;2023-11-22T05:10:05;175.18;;;18.02;;
52554;SDS011;38455;52.710;6.502;2023-11-22T05:12:34;399.15;;;37.58;;
52554;SDS011;38455;52.710;6.502;2023-11-22T05:15:00;59.75;;;15.40;;
52554;SDS011;38455;52.710;6.502;2023-11-22T05:17:27;51.70;;;12.45;;
52554;SDS011;38455;52.710;6.502;2023-11-22T05:19:53;36.40;;;12.50;;
52554;SDS011;38455;52.710;6.502;2023-11-22T05:22:18;63.85;;;18.10;;
52554;SDS011;38455;52.710;6.502;2023-11-22T05:24:44;37.85;;;14.32;;
52554;SDS011;38455;52.710;6.502;2023-11-22T05:27:10;40.25;;;16.00;;
52554;SDS011;38455;52.710;6.502;2023-11-22T05:29:36;82.68;;;20.27;;
52554;SDS011;38455;52.710;6.502;2023-11-22T05:32:02;62.78;;;18.80;;
52554;SDS011;38455;52.710;6.502;2023-11-22T05:34:28;39.72;;;15.25;;
52554;SDS011;38455;52.710;6.502;2023-11-22T05:36:54;48.85;;;17.23;;
52554;SDS011;38455;52.710;6.502;2023-11-22T05:39:20;72.50;;;19.98;;
52554;SDS011;38455;52.710;6.502;2023-11-22T05:41:47;67.72;;;19.17;;
52554;SDS011;38455;52.710;6.502;2023-11-22T05:44:13;32.33;;;13.80;;
52554;SDS011;38455;52.710;6.502;2023-11-22T05:46:39;42.63;;;15.68;;
52554;SDS011;38455;52.710;6.502;2023-11-22T05:49:05;41.53;;;15.20;;
52554;SDS011;38455;52.710;6.502;2023-11-22T05:51:31;48.28;;;16.80;;
52554;SDS011;38455;52.710;6.502;2023-11-22T05:53:57;46.90;;;15.80;;
52554;SDS011;38455;52.710;6.502;2023-11-22T05:56:22;44.70;;;15.88;;
52554;SDS011;38455;52.710;6.502;2023-11-22T05:58:48;32.47;;;14.07;;
52554;SDS011;38455;52.710;6.502;2023-11-22T06:01:14;30.77;;;12.82;;
52554;SDS011;38455;52.710;6.502;2023-11-22T06:03:40;41.08;;;15.32;;
52554;SDS011;38455;52.710;6.502;2023-11-22T06:06:07;34.20;;;13.63;;
52554;SDS011;38455;52.710;6.502;2023-11-22T06:08:33;30.60;;;13.65;;
52554;SDS011;38455;52.710;6.502;2023-11-22T06:10:58;43.80;;;14.65;;
52554;SDS011;38455;52.710;6.502;2023-11-22T06:13:25;33.08;;;12.38;;
52554;SDS011;38455;52.710;6.502;2023-11-22T06:15:51;24.50;;;11.82;;
52554;SDS011;38455;52.710;6.502;2023-11-22T06:18:17;36.97;;;13.52;;
52554;SDS011;38455;52.710;6.502;2023-11-22T06:20:44;43.17;;;16.42;;
52554;SDS011;38455;52.710;6.502;2023-11-22T06:23:09;29.20;;;12.27;;
52554;SDS011;38455;52.710;6.502;2023-11-22T06:25:35;30.60;;;12.18;;
52554;SDS011;38455;52.710;6.502;2023-11-22T06:28:02;29.38;;;12.02;;
52554;SDS011;38455;52.710;6.502;2023-11-22T06:30:27;29.00;;;12.00;;
52554;SDS011;38455;52.710;6.502;2023-11-22T06:32:55;27.55;;;11.85;;
52554;SDS011;38455;52.710;6.502;2023-11-22T06:35:21;38.15;;;14.10;;
52554;SDS011;38455;52.710;6.502;2023-11-22T06:37:47;27.13;;;11.60;;
52554;SDS011;38455;52.710;6.502;2023-11-22T06:40:12;30.95;;;13.07;;
52554;SDS011;38455;52.710;6.502;2023-11-22T06:42:39;32.13;;;13.52;;
52554;SDS011;38455;52.710;6.502;2023-11-22T06:45:08;41.13;;;16.20;;
52554;SDS011;38455;52.710;6.502;2023-11-22T06:47:40;35.55;;;14.95;;
52554;SDS011;38455;52.710;6.502;2023-11-22T06:50:06;26.38;;;11.50;;
52554;SDS011;38455;52.710;6.502;2023-11-22T06:52:40;21.38;;;10.60;;
52554;SDS011;38455;52.710;6.502;2023-11-22T06:55:07;26.10;;;11.55;;
52554;SDS011;38455;52.710;6.502;2023-11-22T06:57:34;26.02;;;11.80;;
52554;SDS011;38455;52.710;6.502;2023-11-22T07:00:00;30.20;;;12.35;;
52554;SDS011;38455;52.710;6.502;2023-11-22T07:02:26;37.90;;;14.20;;
52554;SDS011;38455;52.710;6.502;2023-11-22T07:04:52;36.20;;;12.90;;
52554;SDS011;38455;52.710;6.502;2023-11-22T07:07:18;23.75;;;10.57;;
52554;SDS011;38455;52.710;6.502;2023-11-22T07:09:44;20.35;;;8.98;;
52554;SDS011;38455;52.710;6.502;2023-11-22T07:12:11;32.60;;;12.52;;
52554;SDS011;38455;52.710;6.502;2023-11-22T07:14:37;25.05;;;10.00;;
52554;SDS011;38455;52.710;6.502;2023-11-22T07:17:03;44.72;;;14.68;;
52554;SDS011;38455;52.710;6.502;2023-11-22T07:19:32;60.42;;;14.60;;
52554;SDS011;38455;52.710;6.502;2023-11-22T07:21:59;31.40;;;13.07;;
52554;SDS011;38455;52.710;6.502;2023-11-22T07:24:26;47.50;;;16.13;;
52554;SDS011;38455;52.710;6.502;2023-11-22T07:26:52;40.88;;;15.23;;
52554;SDS011;38455;52.710;6.502;2023-11-22T07:29:18;44.43;;;17.67;;
52554;SDS011;38455;52.710;6.502;2023-11-22T07:31:43;33.95;;;15.32;;
52554;SDS011;38455;52.710;6.502;2023-11-22T07:34:09;36.55;;;14.43;;
52554;SDS011;38455;52.710;6.502;2023-11-22T07:36:37;31.55;;;13.10;;
52554;SDS011;38455;52.710;6.502;2023-11-22T07:39:03;32.72;;;13.43;;
52554;SDS011;38455;52.710;6.502;2023-11-22T07:41:30;40.92;;;16.30;;
52554;SDS011;38455;52.710;6.502;2023-11-22T07:43:56;39.05;;;15.10;;
52554;SDS011;38455;52.710;6.502;2023-11-22T07:46:23;39.90;;;17.00;;
52554;SDS011;38455;52.710;6.502;2023-11-22T07:48:49;41.92;;;16.50;;
52554;SDS011;38455;52.710;6.502;2023-11-22T07:51:15;47.03;;;17.98;;
52554;SDS011;38455;52.710;6.502;2023-11-22T07:53:42;52.90;;;20.15;;
52554;SDS011;38455;52.710;6.502;2023-11-22T07:56:08;47.80;;;17.63;;
52554;SDS011;38455;52.710;6.502;2023-11-22T07:58:34;49.33;;;19.27;;
52554;SDS011;38455;52.710;6.502;2023-11-22T08:01:01;54.92;;;21.20;;
52554;SDS011;38455;52.710;6.502;2023-11-22T08:03:29;62.65;;;20.52;;
52554;SDS011;38455;52.710;6.502;2023-11-22T08:05:54;61.08;;;20.65;;
52554;SDS011;38455;52.710;6.502;2023-11-22T08:08:21;51.67;;;20.58;;
52554;SDS011;38455;52.710;6.502;2023-11-22T08:10:47;48.08;;;18.75;;
52554;SDS011;38455;52.710;6.502;2023-11-22T08:13:16;55.65;;;20.98;;
52554;SDS011;38455;52.710;6.502;2023-11-22T08:15:44;65.35;;;21.63;;
52554;SDS011;38455;52.710;6.502;2023-11-22T08:18:11;43.35;;;19.15;;
52554;SDS011;38455;52.710;6.502;2023-11-22T08:20:38;64.53;;;21.98;;
52554;SDS011;38455;52.710;6.502;2023-11-22T08:23:03;42.15;;;17.67;;
52554;SDS011;38455;52.710;6.502;2023-11-22T08:25:31;36.80;;;18.27;;
52554;SDS011;38455;52.710;6.502;2023-11-22T08:27:57;46.80;;;18.77;;
52554;SDS011;38455;52.710;6.502;2023-11-22T08:30:22;51.58;;;19.55;;
52554;SDS011;38455;52.710;6.502;2023-11-22T08:32:48;38.40;;;17.15;;
52554;SDS011;38455;52.710;6.502;2023-11-22T08:35:19;41.70;;;18.33;;
52554;SDS011;38455;52.710;6.502;2023-11-22T08:37:47;36.78;;;16.35;;
52554;SDS011;38455;52.710;6.502;2023-11-22T08:40:13;35.63;;;16.80;;
52554;SDS011;38455;52.710;6.502;2023-11-22T08:42:45;35.03;;;16.52;;
52554;SDS011;38455;52.710;6.502;2023-11-22T08:45:11;34.40;;;14.40;;
52554;SDS011;38455;52.710;6.502;2023-11-22T08:47:38;29.60;;;16.05;;
52554;SDS011;38455;52.710;6.502;2023-11-22T08:50:05;31.83;;;15.65;;
52554;SDS011;38455;52.710;6.502;2023-11-22T08:52:37;30.67;;;15.63;;
52554;SDS011;38455;52.710;6.502;2023-11-22T08:55:04;28.45;;;14.85;;
52554;SDS011;38455;52.710;6.502;2023-11-22T08:57:36;28.65;;;15.25;;
52554;SDS011;38455;52.710;6.502;2023-11-22T09:00:03;27.00;;;14.55;;
52554;SDS011;38455;52.710;6.502;2023-11-22T09:02:37;34.30;;;14.85;;
52554;SDS011;38455;52.710;6.502;2023-11-22T09:05:04;27.85;;;14.93;;
52554;SDS011;38455;52.710;6.502;2023-11-22T09:07:33;22.88;;;13.70;;
52554;SDS011;38455;52.710;6.502;2023-11-22T09:10:03;27.73;;;14.85;;
52554;SDS011;38455;52.710;6.502;2023-11-22T09:12:36;26.63;;;14.75;;
52554;SDS011;38455;52.710;6.502;2023-11-22T09:15:04;27.77;;;14.15;;
52554;SDS011;38455;52.710;6.502;2023-11-22T09:17:34;29.30;;;14.68;;
52554;SDS011;38455;52.710;6.502;2023-11-22T09:20:08;26.38;;;14.95;;
52554;SDS011;38455;52.710;6.502;2023-11-22T09:22:36;24.75;;;14.48;;
52554;SDS011;38455;52.710;6.502;2023-11-22T09:25:16;28.30;;;15.00;;
52554;SDS011;38455;52.710;6.502;2023-11-22T09:27:44;31.02;;;16.05;;
52554;SDS011;38455;52.710;6.502;2023-11-22T09:30:12;30.08;;;15.20;;
52554;SDS011;38455;52.710;6.502;2023-11-22T09:32:57;31.13;;;17.02;;
52554;SDS011;38455;52.710;6.502;2023-11-22T09:35:27;33.10;;;16.75;;
52554;SDS011;38455;52.710;6.502;2023-11-22T09:37:54;35.25;;;17.10;;
52554;SDS011;38455;52.710;6.502;2023-11-22T09:40:21;27.92;;;15.43;;
52554;SDS011;38455;52.710;6.502;2023-11-22T09:42:47;30.92;;;17.05;;
52554;SDS011;38455;52.710;6.502;2023-11-22T09:45:19;39.80;;;16.13;;
52554;SDS011;38455;52.710;6.502;2023-11-22T09:47:46;34.90;;;18.05;;
52554;SDS011;38455;52.710;6.502;2023-11-22T09:50:59;31.85;;;16.58;;
52554;SDS011;38455;52.710;6.502;2023-11-22T09:53:07;32.05;;;15.77;;
52554;SDS011;38455;52.710;6.502;2023-11-22T09:55:49;31.35;;;16.67;;
52554;SDS011;38455;52.710;6.502;2023-11-22T09:58:14;34.80;;;16.67;;
52554;SDS011;38455;52.710;6.502;2023-11-22T10:00:42;30.88;;;15.70;;
52554;SDS011;38455;52.710;6.502;2023-11-22T10:03:09;32.15;;;16.92;;
52554;SDS011;38455;52.710;6.502;2023-11-22T10:05:38;34.50;;;17.27;;
52554;SDS011;38455;52.710;6.502;2023-11-22T10:08:05;30.63;;;15.75;;
52554;SDS011;38455;52.710;6.502;2023-11-22T10:10:30;27.23;;;15.15;;
52554;SDS011;38455;52.710;6.502;2023-11-22T10:12:59;35.40;;;16.95;;
52554;SDS011;38455;52.710;6.502;2023-11-22T10:15:27;31.80;;;16.55;;
52554;SDS011;38455;52.710;6.502;2023-11-22T10:17:59;32.13;;;16.77;;
52554;SDS011;38455;52.710;6.502;2023-11-22T10:20:35;29.15;;;14.80;;
52554;SDS011;38455;52.710;6.502;2023-11-22T10:23:01;29.15;;;16.25;;
52554;SDS011;38455;52.710;6.502;2023-11-22T10:25:27;28.45;;;15.10;;
52554;SDS011;38455;52.710;6.502;2023-11-22T10:27:54;26.23;;;14.35;;
52554;SDS011;38455;52.710;6.502;2023-11-22T10:30:20;28.60;;;15.05;;
52554;SDS011;38455;52.710;6.502;2023-11-22T10:32:46;28.52;;;14.70;;
52554;SDS011;38455;52.710;6.502;2023-11-22T10:35:11;26.35;;;14.45;;
52554;SDS011;38455;52.710;6.502;2023-11-22T10:37:41;23.52;;;13.32;;
52554;SDS011;38455;52.710;6.502;2023-11-22T10:40:10;26.05;;;13.63;;
52554;SDS011;38455;52.710;6.502;2023-11-22T10:42:38;22.08;;;14.07;;
52554;SDS011;38455;52.710;6.502;2023-11-22T10:45:06;26.52;;;14.25;;
52554;SDS011;38455;52.710;6.502;2023-11-22T10:47:35;19.27;;;11.93;;
52554;SDS011;38455;52.710;6.502;2023-11-22T10:50:04;22.63;;;13.45;;
52554;SDS011;38455;52.710;6.502;2023-11-22T10:52:32;22.52;;;12.68;;
52554;SDS011;38455;52.710;6.502;2023-11-22T10:55:04;21.10;;;12.15;;
52554;SDS011;38455;52.710;6.502;2023-11-22T10:57:36;23.08;;;12.55;;
52554;SDS011;38455;52.710;6.502;2023-11-22T11:02:41;21.55;;;11.82;;
52554;SDS011;38455;52.710;6.502;2023-11-22T11:05:18;18.25;;;10.35;;
52554;SDS011;38455;52.710;6.502;2023-11-22T11:07:54;18.05;;;10.85;;
52554;SDS011;38455;52.710;6.502;2023-11-22T11:10:40;20.77;;;11.35;;
52554;SDS011;38455;52.710;6.502;2023-11-22T11:13:06;19.55;;;11.38;;
52554;SDS011;38455;52.710;6.502;2023-11-22T11:15:34;22.55;;;11.85;;
52554;SDS011;38455;52.710;6.502;2023-11-22T11:18:01;17.17;;;10.43;;
52554;SDS011;38455;52.710;6.502;2023-11-22T11:20:32;19.00;;;10.73;;
52554;SDS011;38455;52.710;6.502;2023-11-22T11:23:12;18.50;;;10.57;;
52554;SDS011;38455;52.710;6.502;2023-11-22T11:25:39;15.57;;;8.70;;
52554;SDS011;38455;52.710;6.502;2023-11-22T11:28:09;16.25;;;9.77;;
52554;SDS011;38455;52.710;6.502;2023-11-22T11:30:47;14.20;;;9.20;;
52554;SDS011;38455;52.710;6.502;2023-11-22T11:33:14;18.90;;;9.07;;
52554;SDS011;38455;52.710;6.502;2023-11-22T11:35:43;16.77;;;9.27;;
52554;SDS011;38455;52.710;6.502;2023-11-22T11:38:15;18.33;;;9.35;;
52554;SDS011;38455;52.710;6.502;2023-11-22T11:40:46;16.33;;;9.70;;
52554;SDS011;38455;52.710;6.502;2023-11-22T11:43:13;14.18;;;8.15;;
52554;SDS011;38455;52.710;6.502;2023-11-22T11:45:39;14.63;;;9.05;;
52554;SDS011;38455;52.710;6.502;2023-11-22T11:48:14;13.95;;;9.38;;
52554;SDS011;38455;52.710;6.502;2023-11-22T11:50:41;15.38;;;8.80;;
52554;SDS011;38455;52.710;6.502;2023-11-22T11:53:07;14.18;;;9.00;;
52554;SDS011;38455;52.710;6.502;2023-11-22T11:55:33;12.38;;;8.20;;
52554;SDS011;38455;52.710;6.502;2023-11-22T11:58:08;14.45;;;8.07;;
52554;SDS011;38455;52.710;6.502;2023-11-22T12:00:37;14.15;;;8.15;;
52554;SDS011;38455;52.710;6.502;2023-11-22T12:03:06;15.70;;;7.95;;
52554;SDS011;38455;52.710;6.502;2023-11-22T12:05:34;12.73;;;7.50;;
52554;SDS011;38455;52.710;6.502;2023-11-22T12:08:03;12.50;;;7.75;;
52554;SDS011;38455;52.710;6.502;2023-11-22T12:10:29;11.63;;;7.25;;
52554;SDS011;38455;52.710;6.502;2023-11-22T12:12:55;12.77;;;7.65;;
52554;SDS011;38455;52.710;6.502;2023-11-22T12:15:21;11.82;;;7.05;;
52554;SDS011;38455;52.710;6.502;2023-11-22T12:17:50;10.70;;;6.32;;
52554;SDS011;38455;52.710;6.502;2023-11-22T12:20:19;11.25;;;7.35;;
52554;SDS011;38455;52.710;6.502;2023-11-22T12:22:49;11.05;;;6.80;;
52554;SDS011;38455;52.710;6.502;2023-11-22T12:25:15;13.40;;;7.43;;
52554;SDS011;38455;52.710;6.502;2023-11-22T12:27:41;11.13;;;6.93;;
52554;SDS011;38455;52.710;6.502;2023-11-22T12:30:08;12.77;;;6.50;;
52554;SDS011;38455;52.710;6.502;2023-11-22T12:32:39;9.82;;;5.82;;
52554;SDS011;38455;52.710;6.502;2023-11-22T12:35:06;9.05;;;5.57;;
52554;SDS011;38455;52.710;6.502;2023-11-22T12:37:33;10.20;;;6.28;;
52554;SDS011;38455;52.710;6.502;2023-11-22T12:40:06;10.50;;;6.18;;
52554;SDS011;38455;52.710;6.502;2023-11-22T12:42:45;8.45;;;5.13;;
52554;SDS011;38455;52.710;6.502;2023-11-22T12:45:21;8.90;;;5.70;;
52554;SDS011;38455;52.710;6.502;2023-11-22T12:47:51;9.27;;;5.68;;
52554;SDS011;38455;52.710;6.502;2023-11-22T12:50:33;16.08;;;6.63;;
52554;SDS011;38455;52.710;6.502;2023-11-22T12:53:09;9.93;;;6.57;;
52554;SDS011;38455;52.710;6.502;2023-11-22T12:55:42;10.75;;;6.18;;
52554;SDS011;38455;52.710;6.502;2023-11-22T12:58:21;9.13;;;5.95;;
52554;SDS011;38455;52.710;6.502;2023-11-22T13:00:49;10.35;;;5.60;;
52554;SDS011;38455;52.710;6.502;2023-11-22T13:03:16;8.85;;;5.95;;
52554;SDS011;38455;52.710;6.502;2023-11-22T13:05:42;10.82;;;5.78;;
52554;SDS011;38455;52.710;6.502;2023-11-22T13:08:09;7.70;;;5.22;;
52554;SDS011;38455;52.710;6.502;2023-11-22T13:10:45;11.25;;;6.47;;
52554;SDS011;38455;52.710;6.502;2023-11-22T13:13:13;7.77;;;5.53;;
52554;SDS011;38455;52.710;6.502;2023-11-22T13:15:39;11.40;;;6.53;;
52554;SDS011;38455;52.710;6.502;2023-11-22T13:18:08;9.32;;;5.78;;
52554;SDS011;38455;52.710;6.502;2023-11-22T13:20:34;9.73;;;5.95;;
52554;SDS011;38455;52.710;6.502;2023-11-22T13:23:00;8.00;;;5.30;;
52554;SDS011;38455;52.710;6.502;2023-11-22T13:25:27;12.93;;;6.22;;
52554;SDS011;38455;52.710;6.502;2023-11-22T13:27:53;11.00;;;5.93;;
52554;SDS011;38455;52.710;6.502;2023-11-22T13:30:21;11.50;;;5.78;;
52554;SDS011;38455;52.710;6.502;2023-11-22T13:32:57;12.20;;;6.45;;
52554;SDS011;38455;52.710;6.502;2023-11-22T13:35:23;9.38;;;6.55;;
52554;SDS011;38455;52.710;6.502;2023-11-22T13:37:52;10.23;;;5.97;;
52554;SDS011;38455;52.710;6.502;2023-11-22T13:40:19;11.02;;;6.53;;
52554;SDS011;38455;52.710;6.502;2023-11-22T13:42:50;11.35;;;6.15;;
52554;SDS011;38455;52.710;6.502;2023-11-22T13:45:18;8.40;;;5.97;;
52554;SDS011;38455;52.710;6.502;2023-11-22T13:47:45;9.60;;;6.22;;
52554;SDS011;38455;52.710;6.502;2023-11-22T13:50:12;11.95;;;6.78;;
52554;SDS011;38455;52.710;6.502;2023-11-22T13:52:51;9.73;;;6.30;;
52554;SDS011;38455;52.710;6.502;2023-11-22T13:55:18;10.30;;;6.65;;
52554;SDS011;38455;52.710;6.502;2023-11-22T13:57:51;11.48;;;6.63;;
52554;SDS011;38455;52.710;6.502;2023-11-22T14:00:18;12.23;;;6.53;;
52554;SDS011;38455;52.710;6.502;2023-11-22T14:02:48;11.63;;;6.65;;
52554;SDS011;38455;52.710;6.502;2023-11-22T14:05:18;10.40;;;6.68;;
52554;SDS011;38455;52.710;6.502;2023-11-22T14:07:44;12.32;;;7.13;;
52554;SDS011;38455;52.710;6.502;2023-11-22T14:10:10;13.07;;;6.78;;
52554;SDS011;38455;52.710;6.502;2023-11-22T14:12:41;13.73;;;8.05;;
52554;SDS011;38455;52.710;6.502;2023-11-22T14:15:07;12.20;;;7.13;;
52554;SDS011;38455;52.710;6.502;2023-11-22T14:17:33;12.48;;;7.25;;
52554;SDS011;38455;52.710;6.502;2023-11-22T14:19:59;11.10;;;7.05;;
52554;SDS011;38455;52.710;6.502;2023-11-22T14:22:25;11.30;;;6.72;;
52554;SDS011;38455;52.710;6.502;2023-11-22T14:24:55;10.93;;;7.05;;
52554;SDS011;38455;52.710;6.502;2023-11-22T14:27:22;10.32;;;6.65;;